createdAt,value
2023-05-04T00:00:39.348Z,75.08
2023-05-04T00:01:39.314Z,74.98
2023-05-04T00:02:39.411Z,74.98
2023-05-04T00:03:39.445Z,74.87
2023-05-04T00:04:39.304Z,74.87
2023-05-04T00:05:39.246Z,74.77
2023-05-04T00:06:39.239Z,74.87
2023-05-04T00:07:39.298Z,74.87
2023-05-04T00:08:39.210Z,74.77
2023-05-04T00:09:39.208Z,74.87
2023-05-04T00:10:39.234Z,75.08
2023-05-04T00:11:39.185Z,75.01
2023-05-04T00:12:39.221Z,75.01
2023-05-04T00:13:39.201Z,75.18
2023-05-04T00:14:39.212Z,75.08
2023-05-04T00:15:39.152Z,75.08
2023-05-04T00:16:39.253Z,75.08
2023-05-04T00:17:39.192Z,75.38
2023-05-04T00:18:39.113Z,75.12
2023-05-04T00:19:39.161Z,75.12
2023-05-04T00:20:39.693Z,75.32
2023-05-04T00:21:39.084Z,75.12
2023-05-04T00:22:39.072Z,75.21
2023-05-04T00:23:39.049Z,75.01
2023-05-04T00:24:39.662Z,75.12
2023-05-04T00:25:39.039Z,75.32
2023-05-04T00:26:39.055Z,75.42
2023-05-04T00:27:38.990Z,75.52
2023-05-04T00:28:38.990Z,75.63
2023-05-04T00:29:39.010Z,75.73
2023-05-04T00:30:39.027Z,75.93
2023-05-04T00:31:39.021Z,75.21
2023-05-04T00:32:38.992Z,75.52
2023-05-04T00:33:38.958Z,75.42
2023-05-04T00:34:38.953Z,75.52
2023-05-04T00:35:38.923Z,75.97
2023-05-04T00:36:38.945Z,75.73
2023-05-04T00:37:38.899Z,75.52
2023-05-04T00:38:38.871Z,75.46
2023-05-04T00:39:38.880Z,75.56
2023-05-04T00:40:38.886Z,75.67
2023-05-04T00:41:38.872Z,75.87
2023-05-04T00:42:38.901Z,76.07
2023-05-04T00:43:38.822Z,75.97
2023-05-04T00:44:38.821Z,76.18
2023-05-04T00:45:38.844Z,76.28
2023-05-04T00:46:38.852Z,75.97
2023-05-04T00:47:38.825Z,76.18
2023-05-04T00:48:38.843Z,76.18
2023-05-04T00:49:38.777Z,76.38
2023-05-04T00:50:38.759Z,75.97
2023-05-04T00:51:38.727Z,76.28
2023-05-04T00:52:38.748Z,76.18
2023-05-04T00:53:38.731Z,76.18
2023-05-04T00:54:39.696Z,76.28
2023-05-04T00:55:38.709Z,76.48
2023-05-04T00:56:38.677Z,76.69
2023-05-04T00:57:38.732Z,76.73
2023-05-04T00:58:38.675Z,76.83
2023-05-04T00:59:38.680Z,76.93
2023-05-04T01:00:38.699Z,76.93
2023-05-04T01:01:38.707Z,76.93
2023-05-04T01:02:38.670Z,76.93
2023-05-04T01:03:38.672Z,77.14
2023-05-04T01:04:38.613Z,77.34
2023-05-04T01:05:38.623Z,77.14
2023-05-04T01:06:38.563Z,76.93
2023-05-04T01:07:38.586Z,77.14
2023-05-04T01:08:38.559Z,76.93
2023-05-04T01:09:38.583Z,77.45
2023-05-04T01:10:38.563Z,77.45
2023-05-04T01:11:38.555Z,77.14
2023-05-04T01:12:38.579Z,77.34
2023-05-04T01:13:38.505Z,77.45
2023-05-04T01:14:38.491Z,77.24
2023-05-04T01:15:38.563Z,77.24
2023-05-04T01:16:38.507Z,77.34
2023-05-04T01:17:38.447Z,77.28
2023-05-04T01:18:38.480Z,77.48
2023-05-04T01:19:38.431Z,77.48
2023-05-04T01:20:38.405Z,77.58
2023-05-04T01:21:38.438Z,77.69
2023-05-04T01:22:38.409Z,77.69
2023-05-04T01:23:38.384Z,77.58
2023-05-04T01:24:38.368Z,77.38
2023-05-04T01:25:38.403Z,77.58
2023-05-04T01:26:38.376Z,78.00
2023-05-04T01:27:38.350Z,78.00
2023-05-04T01:28:38.319Z,77.89
2023-05-04T01:29:38.341Z,77.89
2023-05-04T01:30:38.465Z,78.00
2023-05-04T01:31:38.307Z,78.20
2023-05-04T01:32:39.194Z,78.10
2023-05-04T01:33:38.298Z,77.89
2023-05-04T01:34:38.319Z,78.10
2023-05-04T01:35:38.252Z,78.10
2023-05-04T01:36:38.250Z,78.24
2023-05-04T01:37:38.230Z,78.44
2023-05-04T01:38:39.091Z,78.55
2023-05-04T01:39:38.251Z,78.65
2023-05-04T01:40:38.170Z,78.65
2023-05-04T01:41:38.201Z,78.75
2023-05-04T01:42:38.182Z,78.75
2023-05-04T01:43:38.140Z,78.65
2023-05-04T01:44:38.155Z,78.55
2023-05-04T01:45:38.175Z,78.34
2023-05-04T01:46:38.234Z,78.14
2023-05-04T01:47:38.146Z,78.34
2023-05-04T01:48:38.104Z,78.14
2023-05-04T01:49:38.117Z,78.44
2023-05-04T01:50:38.068Z,78.55
2023-05-04T01:51:38.091Z,78.34
2023-05-04T01:52:38.038Z,78.65
2023-05-04T01:53:38.051Z,78.65
2023-05-04T01:54:38.003Z,78.44
2023-05-04T01:55:38.005Z,78.55
2023-05-04T01:56:38.022Z,78.44
2023-05-04T01:57:38.047Z,78.34
2023-05-04T01:58:38.001Z,78.34
2023-05-04T01:59:38.005Z,78.24
2023-05-04T02:00:37.976Z,78.34
2023-05-04T02:01:37.969Z,78.24
2023-05-04T02:02:38.017Z,78.34
2023-05-04T02:03:38.463Z,78.34
2023-05-04T02:04:37.929Z,78.44
2023-05-04T02:05:37.914Z,78.34
2023-05-04T02:06:37.878Z,78.28
2023-05-04T02:07:37.874Z,78.48
2023-05-04T02:08:37.872Z,78.69
2023-05-04T02:09:37.896Z,79.00
2023-05-04T02:10:37.836Z,79.20
2023-05-04T02:11:37.819Z,79.41
2023-05-04T02:12:37.833Z,79.41
2023-05-04T02:13:37.831Z,79.41
2023-05-04T02:14:37.829Z,79.30
2023-05-04T02:15:37.797Z,79.10
2023-05-04T02:16:37.903Z,78.89
2023-05-04T02:17:37.794Z,79.00
2023-05-04T02:18:37.783Z,79.20
2023-05-04T02:19:37.760Z,79.61
2023-05-04T02:20:37.750Z,79.61
2023-05-04T02:21:37.694Z,79.82
2023-05-04T02:22:37.708Z,79.93
2023-05-04T02:23:37.686Z,79.82
2023-05-04T02:24:37.702Z,80.02
2023-05-04T02:25:37.713Z,80.33
2023-05-04T02:26:37.640Z,80.23
2023-05-04T02:27:37.644Z,80.23
2023-05-04T02:28:37.685Z,80.13
2023-05-04T02:29:37.638Z,80.02
2023-05-04T02:30:37.627Z,79.72
2023-05-04T02:31:37.725Z,79.72
2023-05-04T02:32:37.595Z,79.72
2023-05-04T02:33:37.585Z,79.61
2023-05-04T02:34:37.549Z,80.13
2023-05-04T02:35:37.567Z,79.82
2023-05-04T02:36:37.551Z,79.51
2023-05-04T02:37:37.569Z,79.51
2023-05-04T02:38:37.514Z,79.61
2023-05-04T02:39:37.513Z,79.30
2023-05-04T02:40:37.504Z,79.30
2023-05-04T02:41:37.493Z,79.51
2023-05-04T02:42:37.507Z,79.72
2023-05-04T02:43:37.739Z,79.82
2023-05-04T02:44:37.448Z,79.72
2023-05-04T02:45:37.497Z,79.72
2023-05-04T02:46:37.441Z,79.93
2023-05-04T02:47:37.466Z,80.02
2023-05-04T02:48:37.438Z,80.27
2023-05-04T02:49:37.437Z,80.16
2023-05-04T02:50:37.434Z,80.02
2023-05-04T02:51:37.384Z,80.13
2023-05-04T02:52:37.395Z,80.16
2023-05-04T02:53:37.345Z,80.16
2023-05-04T02:54:37.416Z,79.96
2023-05-04T02:55:37.371Z,79.86
2023-05-04T02:56:37.307Z,79.75
2023-05-04T02:57:37.308Z,79.72
2023-05-04T02:58:37.279Z,79.72
2023-05-04T02:59:37.282Z,80.13
2023-05-04T03:00:37.303Z,80.13
2023-05-04T03:01:37.409Z,80.13
2023-05-04T03:02:37.277Z,80.16
2023-05-04T03:03:37.254Z,80.27
2023-05-04T03:04:37.381Z,80.47
2023-05-04T03:05:37.237Z,80.37
2023-05-04T03:06:37.211Z,80.27
2023-05-04T03:07:37.422Z,80.47
2023-05-04T03:08:37.252Z,80.79
2023-05-04T03:09:37.219Z,80.58
2023-05-04T03:10:37.150Z,80.47
2023-05-04T03:11:37.157Z,80.47
2023-05-04T03:12:37.161Z,80.68
2023-05-04T03:13:37.147Z,80.79
2023-05-04T03:14:37.106Z,80.68
2023-05-04T03:15:37.098Z,80.79
2023-05-04T03:16:37.167Z,80.79
2023-05-04T03:17:37.092Z,80.79
2023-05-04T03:18:58.085Z,80.58
2023-05-04T03:19:37.070Z,80.47
2023-05-04T03:20:37.028Z,80.47
2023-05-04T03:21:37.010Z,80.37
2023-05-04T03:22:37.008Z,80.37
2023-05-04T03:23:37.034Z,80.37
2023-05-04T03:24:37.052Z,80.16
2023-05-04T03:25:37.012Z,80.27
2023-05-04T03:26:36.969Z,80.68
2023-05-04T03:27:36.969Z,80.68
2023-05-04T03:28:36.958Z,80.89
2023-05-04T03:29:36.991Z,81.09
2023-05-04T03:30:36.962Z,81.09
2023-05-04T03:31:36.967Z,80.58
2023-05-04T03:32:36.945Z,80.58
2023-05-04T03:33:36.886Z,80.37
2023-05-04T03:34:36.917Z,80.47
2023-05-04T03:35:36.922Z,80.58
2023-05-04T03:36:36.887Z,80.47
2023-05-04T03:37:36.866Z,80.99
2023-05-04T03:38:36.893Z,80.79
2023-05-04T03:39:36.835Z,80.79
2023-05-04T03:40:36.819Z,80.79
2023-05-04T03:41:36.852Z,80.72
2023-05-04T03:42:36.811Z,80.51
2023-05-04T03:43:36.789Z,80.27
2023-05-04T03:44:36.779Z,80.37
2023-05-04T03:45:36.780Z,80.37
2023-05-04T03:46:36.854Z,80.27
2023-05-04T03:47:36.876Z,80.16
2023-05-04T03:48:36.734Z,79.96
2023-05-04T03:49:36.756Z,80.16
2023-05-04T03:50:36.728Z,80.06
2023-05-04T03:51:36.705Z,80.06
2023-05-04T03:52:36.717Z,80.16
2023-05-04T03:53:36.792Z,80.47
2023-05-04T03:54:36.705Z,80.37
2023-05-04T03:55:36.681Z,80.37
2023-05-04T03:56:36.652Z,80.47
2023-05-04T03:57:36.640Z,80.62
2023-05-04T03:58:36.633Z,80.51
2023-05-04T03:59:36.631Z,80.51
2023-05-04T04:00:36.613Z,80.51
2023-05-04T04:01:36.649Z,80.62
2023-05-04T04:02:36.622Z,80.93
2023-05-04T04:03:36.709Z,80.93
2023-05-04T04:04:36.568Z,80.82
2023-05-04T04:05:36.559Z,80.62
2023-05-04T04:06:36.526Z,80.72
2023-05-04T04:07:36.544Z,81.03
2023-05-04T04:08:36.515Z,80.93
2023-05-04T04:09:36.502Z,80.82
2023-05-04T04:10:36.816Z,80.93
2023-05-04T04:11:36.476Z,80.82
2023-05-04T04:12:36.500Z,80.82
2023-05-04T04:13:36.508Z,80.82
2023-05-04T04:14:36.415Z,80.93
2023-05-04T04:15:36.455Z,80.82
2023-05-04T04:16:36.899Z,81.23
2023-05-04T04:17:36.440Z,81.34
2023-05-04T04:18:36.420Z,81.13
2023-05-04T04:19:36.400Z,81.34
2023-05-04T04:20:36.398Z,81.23
2023-05-04T04:21:36.424Z,81.44
2023-05-04T04:22:36.361Z,81.75
2023-05-04T04:23:36.338Z,81.85
2023-05-04T04:24:36.348Z,81.85
2023-05-04T04:25:36.363Z,81.96
2023-05-04T04:26:36.308Z,81.75
2023-05-04T04:27:36.334Z,81.85
2023-05-04T04:28:36.287Z,81.96
2023-05-04T04:29:36.268Z,81.96
2023-05-04T04:30:36.289Z,81.81
2023-05-04T04:31:36.347Z,81.71
2023-05-04T04:32:36.266Z,81.51
2023-05-04T04:33:36.284Z,81.51
2023-05-04T04:34:36.248Z,81.20
2023-05-04T04:35:36.227Z,81.09
2023-05-04T04:36:36.180Z,81.09
2023-05-04T04:37:36.211Z,81.09
2023-05-04T04:38:36.177Z,81.09
2023-05-04T04:39:36.218Z,81.09
2023-05-04T04:40:36.140Z,81.30
2023-05-04T04:41:36.158Z,81.09
2023-05-04T04:42:36.114Z,80.89
2023-05-04T04:43:36.140Z,80.89
2023-05-04T04:44:36.174Z,80.89
2023-05-04T04:45:36.099Z,80.89
2023-05-04T04:46:36.153Z,80.89
2023-05-04T04:47:36.167Z,80.79
2023-05-04T04:48:36.074Z,80.47
2023-05-04T04:49:36.106Z,80.44
2023-05-04T04:50:36.064Z,80.75
2023-05-04T04:51:36.050Z,80.85
2023-05-04T04:52:36.017Z,80.85
2023-05-04T04:53:35.985Z,81.05
2023-05-04T04:54:35.961Z,81.16
2023-05-04T04:55:35.979Z,81.16
2023-05-04T04:56:35.941Z,81.26
2023-05-04T04:57:36.024Z,81.37
2023-05-04T04:58:35.918Z,81.16
2023-05-04T04:59:35.910Z,81.05
2023-05-04T05:00:35.916Z,81.26
2023-05-04T05:01:35.904Z,81.05
2023-05-04T05:02:35.893Z,81.16
2023-05-04T05:03:35.864Z,80.95
2023-05-04T05:04:35.929Z,81.05
2023-05-04T05:05:35.856Z,81.37
2023-05-04T05:06:35.857Z,81.37
2023-05-04T05:07:35.832Z,81.37
2023-05-04T05:08:35.808Z,81.37
2023-05-04T05:09:35.806Z,81.16
2023-05-04T05:10:35.805Z,81.26
2023-05-04T05:11:35.806Z,81.37
2023-05-04T05:12:35.849Z,81.37
2023-05-04T05:13:35.851Z,81.05
2023-05-04T05:14:35.770Z,80.95
2023-05-04T05:15:35.937Z,80.85
2023-05-04T05:16:35.725Z,80.75
2023-05-04T05:17:35.761Z,80.95
2023-05-04T05:18:35.698Z,80.85
2023-05-04T05:19:35.731Z,80.65
2023-05-04T05:20:35.668Z,80.54
2023-05-04T05:21:35.711Z,80.44
2023-05-04T05:22:35.667Z,80.54
2023-05-04T05:23:35.653Z,80.61
2023-05-04T05:24:35.639Z,80.71
2023-05-04T05:25:35.634Z,80.71
2023-05-04T05:26:35.610Z,80.61
2023-05-04T05:27:35.598Z,80.61
2023-05-04T05:28:35.585Z,80.81
2023-05-04T05:29:35.579Z,80.91
2023-05-04T05:30:35.650Z,80.91
2023-05-04T05:31:35.561Z,80.71
2023-05-04T05:32:35.571Z,80.81
2023-05-04T05:33:35.534Z,80.71
2023-05-04T05:34:35.530Z,80.81
2023-05-04T05:35:35.515Z,80.91
2023-05-04T05:36:35.514Z,80.47
2023-05-04T05:37:35.494Z,80.36
2023-05-04T05:38:35.495Z,80.36
2023-05-04T05:39:35.462Z,79.95
2023-05-04T05:40:35.464Z,79.64
2023-05-04T05:41:35.437Z,79.85
2023-05-04T05:42:35.425Z,79.81
2023-05-04T05:43:35.417Z,79.71
2023-05-04T05:44:35.406Z,78.96
2023-05-04T05:45:35.418Z,78.64
2023-05-04T05:46:35.407Z,78.64
2023-05-04T05:47:35.425Z,78.44
2023-05-04T05:48:35.360Z,78.20
2023-05-04T05:49:35.348Z,78.09
2023-05-04T05:50:35.388Z,77.75
2023-05-04T05:51:35.324Z,77.55
2023-05-04T05:52:35.322Z,77.44
2023-05-04T05:53:35.301Z,76.79
2023-05-04T05:54:35.298Z,76.17
2023-05-04T05:55:35.293Z,76.07
2023-05-04T05:56:35.285Z,76.28
2023-05-04T05:57:35.262Z,76.04
2023-05-04T05:58:35.240Z,75.52
2023-05-04T05:59:35.234Z,74.98
2023-05-04T06:00:35.241Z,74.87
2023-05-04T06:01:35.213Z,74.66
2023-05-04T06:02:35.269Z,74.84
2023-05-04T06:03:35.263Z,74.43
2023-05-04T06:04:35.202Z,74.39
2023-05-04T06:05:35.202Z,73.57
2023-05-04T06:06:35.154Z,73.36
2023-05-04T06:07:35.156Z,73.44
2023-05-04T06:08:35.129Z,73.64
2023-05-04T06:09:35.252Z,73.95
2023-05-04T06:10:35.140Z,73.30
2023-05-04T06:11:35.129Z,73.61
2023-05-04T06:12:35.114Z,73.71
2023-05-04T06:13:35.082Z,72.38
2023-05-04T06:14:35.064Z,72.48
2023-05-04T06:15:35.074Z,72.48
2023-05-04T06:16:35.080Z,72.65
2023-05-04T06:17:35.068Z,72.86
2023-05-04T06:18:35.152Z,72.86
2023-05-04T06:19:34.999Z,72.62
2023-05-04T06:20:35.556Z,71.90
2023-05-04T06:21:34.984Z,71.39
2023-05-04T06:22:34.985Z,71.39
2023-05-04T06:23:34.963Z,69.79
2023-05-04T06:24:34.954Z,70.61
2023-05-04T06:25:34.954Z,70.78
2023-05-04T06:26:34.944Z,71.49
2023-05-04T06:27:34.947Z,70.57
2023-05-04T06:28:34.966Z,70.23
2023-05-04T06:29:34.971Z,70.03
2023-05-04T06:30:34.907Z,70.03
2023-05-04T06:31:35.006Z,70.23
2023-05-04T06:32:34.979Z,70.20
2023-05-04T06:33:34.926Z,70.40
2023-05-04T06:34:34.847Z,70.20
2023-05-04T06:35:34.856Z,70.17
2023-05-04T06:36:34.810Z,70.17
2023-05-04T06:37:34.795Z,70.64
2023-05-04T06:38:37.634Z,69.01
2023-05-04T06:39:34.813Z,69.21
2023-05-04T06:40:34.764Z,69.79
2023-05-04T06:41:34.775Z,68.98
2023-05-04T06:42:34.772Z,68.57
2023-05-04T06:43:34.807Z,68.16
2023-05-04T06:44:34.721Z,67.45
2023-05-04T06:45:34.792Z,67.24
2023-05-04T06:46:34.710Z,67.85
2023-05-04T06:47:34.712Z,67.24
2023-05-04T06:48:34.687Z,67.76
2023-05-04T06:49:34.699Z,67.24
2023-05-04T06:50:34.709Z,67.18
2023-05-04T06:51:34.637Z,66.77
2023-05-04T06:52:34.638Z,67.89
2023-05-04T06:53:34.621Z,67.85
2023-05-04T06:54:34.608Z,67.96
2023-05-04T06:55:34.595Z,68.37
2023-05-04T06:56:34.637Z,68.44
2023-05-04T06:57:34.582Z,68.74
2023-05-04T06:58:34.558Z,67.32
2023-05-04T06:59:34.556Z,67.01
2023-05-04T07:00:34.566Z,67.11
2023-05-04T07:01:34.575Z,66.88
2023-05-04T07:02:34.541Z,67.99
2023-05-04T07:03:34.565Z,67.29
2023-05-04T07:04:34.511Z,67.18
2023-05-04T07:05:34.514Z,67.38
2023-05-04T07:06:34.472Z,67.76
2023-05-04T07:07:34.459Z,66.85
2023-05-04T07:08:34.449Z,67.32
2023-05-04T07:09:34.433Z,66.82
2023-05-04T07:10:34.479Z,67.22
2023-05-04T07:11:34.433Z,66.91
2023-05-04T07:12:34.413Z,66.61
2023-05-04T07:13:34.392Z,65.59
2023-05-04T07:14:34.379Z,65.49
2023-05-04T07:15:34.385Z,66.41
2023-05-04T07:16:34.405Z,66.61
2023-05-04T07:17:34.385Z,67.12
2023-05-04T07:18:34.339Z,67.08
2023-05-04T07:19:34.317Z,65.86
2023-05-04T07:20:34.374Z,66.38
2023-05-04T07:21:34.301Z,65.97
2023-05-04T07:22:34.308Z,65.86
2023-05-04T07:23:34.303Z,66.38
2023-05-04T07:24:34.278Z,66.88
2023-05-04T07:25:35.098Z,66.24
2023-05-04T07:26:34.267Z,65.53
2023-05-04T07:27:34.229Z,65.12
2023-05-04T07:28:34.223Z,64.81
2023-05-04T07:29:34.195Z,65.02
2023-05-04T07:30:34.220Z,64.92
2023-05-04T07:31:34.255Z,64.61
2023-05-04T07:32:34.183Z,64.72
2023-05-04T07:33:34.156Z,64.31
2023-05-04T07:34:44.639Z,64.81
2023-05-04T07:35:34.161Z,65.02
2023-05-04T07:36:34.126Z,64.72
2023-05-04T07:37:34.124Z,65.43
2023-05-04T07:38:34.106Z,65.19
2023-05-04T07:39:34.085Z,64.69
2023-05-04T07:40:34.130Z,65.36
2023-05-04T07:41:34.069Z,64.15
2023-05-04T07:42:34.053Z,63.23
2023-05-04T07:43:34.060Z,64.45
2023-05-04T07:44:34.037Z,63.43
2023-05-04T07:45:34.019Z,64.45
2023-05-04T07:46:34.217Z,64.52
2023-05-04T07:47:34.008Z,63.40
2023-05-04T07:48:33.992Z,63.40
2023-05-04T07:49:33.974Z,64.62
2023-05-04T07:50:34.219Z,64.22
2023-05-04T07:51:33.956Z,63.91
2023-05-04T07:52:33.942Z,62.79
2023-05-04T07:53:33.931Z,62.97
2023-05-04T07:54:33.958Z,63.17
2023-05-04T07:55:33.933Z,61.95
2023-05-04T07:56:33.901Z,62.36
2023-05-04T07:57:33.885Z,62.53
2023-05-04T07:58:33.878Z,62.33
2023-05-04T07:59:33.859Z,62.94
2023-05-04T08:00:33.853Z,63.24
2023-05-04T08:01:33.906Z,63.62
2023-05-04T08:02:33.910Z,63.62
2023-05-04T08:03:33.924Z,63.59
2023-05-04T08:04:33.844Z,62.04
2023-05-04T08:05:33.814Z,61.74
2023-05-04T08:06:33.789Z,62.14
2023-05-04T08:07:33.776Z,61.46
2023-05-04T08:08:33.782Z,62.95
2023-05-04T08:09:33.748Z,61.36
2023-05-04T08:10:33.768Z,60.95
2023-05-04T08:11:33.725Z,60.44
2023-05-04T08:12:33.730Z,61.46
2023-05-04T08:13:33.703Z,61.63
2023-05-04T08:14:33.727Z,61.74
2023-05-04T08:15:33.685Z,62.62
2023-05-04T08:16:33.705Z,62.59
2023-05-04T08:17:33.665Z,61.07
2023-05-04T08:18:33.650Z,61.78
2023-05-04T08:19:33.860Z,60.66
2023-05-04T08:20:33.648Z,60.86
2023-05-04T08:21:33.602Z,61.07
2023-05-04T08:22:33.603Z,59.55
2023-05-04T08:23:33.586Z,60.16
2023-05-04T08:24:33.581Z,60.66
2023-05-04T08:25:33.940Z,59.38
2023-05-04T08:26:33.566Z,60.49
2023-05-04T08:27:33.551Z,61.91
2023-05-04T08:28:33.541Z,62.08
2023-05-04T08:29:33.521Z,61.55
2023-05-04T08:30:33.541Z,61.14
2023-05-04T08:31:33.550Z,60.71
2023-05-04T08:32:33.588Z,60.91
2023-05-04T08:33:33.475Z,60.07
2023-05-04T08:34:33.460Z,60.27
2023-05-04T08:35:33.489Z,59.27
2023-05-04T08:36:33.452Z,60.88
2023-05-04T08:37:33.436Z,60.96
2023-05-04T08:38:33.435Z,58.93
2023-05-04T08:39:33.407Z,57.62
2023-05-04T08:40:33.397Z,58.70
2023-05-04T08:41:33.409Z,57.89
2023-05-04T08:42:33.384Z,58.09
2023-05-04T08:43:33.364Z,57.69
2023-05-04T08:44:33.354Z,57.04
2023-05-04T08:45:33.373Z,57.34
2023-05-04T08:46:33.355Z,58.15
2023-05-04T08:47:33.328Z,60.48
2023-05-04T08:48:33.309Z,61.25
2023-05-04T08:49:33.309Z,58.40
2023-05-04T08:50:33.311Z,57.49
2023-05-04T08:51:33.315Z,57.62
2023-05-04T08:52:33.276Z,58.63
2023-05-04T08:53:33.253Z,59.44
2023-05-04T08:54:33.243Z,58.23
2023-05-04T08:55:33.233Z,57.11
2023-05-04T08:56:33.237Z,57.52
2023-05-04T08:57:33.205Z,57.79
2023-05-04T08:58:33.199Z,58.20
2023-05-04T08:59:33.180Z,60.09
2023-05-04T09:00:33.201Z,59.66
2023-05-04T09:01:33.319Z,58.34
2023-05-04T09:02:33.206Z,59.42
2023-05-04T09:03:33.210Z,59.22
2023-05-04T09:04:33.128Z,58.19
2023-05-04T09:05:33.106Z,58.39
2023-05-04T09:06:33.132Z,59.88
2023-05-04T09:07:33.086Z,59.07
2023-05-04T09:08:33.088Z,58.74
2023-05-04T09:09:33.063Z,58.23
2023-05-04T09:10:33.058Z,56.80
2023-05-04T09:11:33.040Z,55.59
2023-05-04T09:12:33.110Z,54.30
2023-05-04T09:13:33.023Z,55.21
2023-05-04T09:14:33.017Z,55.69
2023-05-04T09:15:33.000Z,56.49
2023-05-04T09:16:33.003Z,58.01
2023-05-04T09:17:33.011Z,55.39
2023-05-04T09:18:33.040Z,56.90
2023-05-04T09:19:32.968Z,53.88
2023-05-04T09:20:32.944Z,53.98
2023-05-04T09:21:32.924Z,52.57
2023-05-04T09:22:32.920Z,53.50
2023-05-04T09:23:32.923Z,53.38
2023-05-04T09:24:33.041Z,53.07
2023-05-04T09:25:32.918Z,54.55
2023-05-04T09:26:32.897Z,56.64
2023-05-04T09:27:32.859Z,56.44
2023-05-04T09:28:32.852Z,50.51
2023-05-04T09:29:32.848Z,52.31
2023-05-04T09:30:32.850Z,54.63
2023-05-04T09:31:32.850Z,55.11
2023-05-04T09:32:32.848Z,52.17
2023-05-04T09:33:32.802Z,51.79
2023-05-04T09:34:32.788Z,51.36
2023-05-04T09:35:34.379Z,52.57
2023-05-04T09:36:32.764Z,53.17
2023-05-04T09:37:32.744Z,55.58
2023-05-04T09:38:32.746Z,54.78
2023-05-04T09:39:32.724Z,51.76
2023-05-04T09:40:32.733Z,51.18
2023-05-04T09:41:32.730Z,54.50
2023-05-04T09:42:32.699Z,54.08
2023-05-04T09:43:32.679Z,52.67
2023-05-04T09:44:32.676Z,51.26
2023-05-04T09:45:32.658Z,51.76
2023-05-04T09:46:33.329Z,51.09
2023-05-04T09:47:32.655Z,51.79
2023-05-04T09:48:32.627Z,53.50
2023-05-04T09:49:32.685Z,52.37
2023-05-04T09:50:32.611Z,53.88
2023-05-04T09:51:32.593Z,52.24
2023-05-04T09:52:32.617Z,49.93
2023-05-04T09:53:32.572Z,52.74
2023-05-04T09:54:32.562Z,52.34
2023-05-04T09:55:32.547Z,53.42
2023-05-04T09:56:32.559Z,51.72
2023-05-04T09:57:32.526Z,52.72
2023-05-04T09:58:32.540Z,50.01
2023-05-04T09:59:32.663Z,52.01
2023-05-04T10:00:32.497Z,50.99
2023-05-04T10:01:32.535Z,52.77
2023-05-04T10:02:32.553Z,50.46
2023-05-04T10:03:32.485Z,51.37
2023-05-04T10:04:32.452Z,52.67
2023-05-04T10:05:32.505Z,53.97
2023-05-04T10:06:32.433Z,52.55
2023-05-04T10:07:32.408Z,48.93
2023-05-04T10:08:32.431Z,52.37
2023-05-04T10:09:32.387Z,52.26
2023-05-04T10:10:32.389Z,49.28
2023-05-04T10:11:32.382Z,49.51
2023-05-04T10:12:32.368Z,53.14
2023-05-04T10:13:32.374Z,52.14
2023-05-04T10:14:32.335Z,50.61
2023-05-04T10:15:32.316Z,52.82
2023-05-04T10:16:32.348Z,50.68
2023-05-04T10:17:32.307Z,49.58
2023-05-04T10:18:32.303Z,48.48
2023-05-04T10:19:32.324Z,49.16
2023-05-04T10:20:32.274Z,48.05
2023-05-04T10:21:32.266Z,50.96
2023-05-04T10:22:32.241Z,50.13
2023-05-04T10:23:32.227Z,49.13
2023-05-04T10:24:32.225Z,48.03
2023-05-04T10:25:32.236Z,48.93
2023-05-04T10:26:32.201Z,47.43
2023-05-04T10:27:32.185Z,52.32
2023-05-04T10:28:32.177Z,49.39
2023-05-04T10:29:32.157Z,48.58
2023-05-04T10:30:32.149Z,47.28
2023-05-04T10:31:32.625Z,47.58
2023-05-04T10:32:32.129Z,46.88
2023-05-04T10:33:32.120Z,46.91
2023-05-04T10:34:32.099Z,50.59
2023-05-04T10:35:32.089Z,49.16
2023-05-04T10:36:32.077Z,47.86
2023-05-04T10:37:32.108Z,51.07
2023-05-04T10:38:32.050Z,50.74
2023-05-04T10:39:32.051Z,47.74
2023-05-04T10:40:32.030Z,44.43
2023-05-04T10:41:32.025Z,46.86
2023-05-04T10:42:32.009Z,46.56
2023-05-04T10:43:32.033Z,45.86
2023-05-04T10:44:31.984Z,45.86
2023-05-04T10:45:31.987Z,46.46
2023-05-04T10:46:31.963Z,47.76
2023-05-04T10:47:31.970Z,46.54
2023-05-04T10:48:31.939Z,48.34
2023-05-04T10:49:31.969Z,45.24
2023-05-04T10:50:31.915Z,46.94
2023-05-04T10:51:42.470Z,46.54
2023-05-04T10:52:31.910Z,45.04
2023-05-04T10:53:31.907Z,45.04
2023-05-04T10:54:31.870Z,48.72
2023-05-04T10:55:31.901Z,47.52
2023-05-04T10:56:31.859Z,44.24
2023-05-04T10:57:31.848Z,45.14
2023-05-04T10:58:31.834Z,43.55
2023-05-04T10:59:31.822Z,45.56
2023-05-04T11:00:31.811Z,47.86
2023-05-04T11:01:31.827Z,46.84
2023-05-04T11:02:33.409Z,44.34
2023-05-04T11:03:31.837Z,46.42
2023-05-04T11:04:31.759Z,48.90
2023-05-04T11:05:31.751Z,43.19
2023-05-04T11:06:31.740Z,43.29
2023-05-04T11:07:31.763Z,45.39
2023-05-04T11:08:31.715Z,43.98
2023-05-04T11:09:31.711Z,42.87
2023-05-04T11:10:31.695Z,42.69
2023-05-04T11:11:31.690Z,41.71
2023-05-04T11:12:31.699Z,43.01
2023-05-04T11:13:31.703Z,41.82
2023-05-04T11:14:31.656Z,44.39
2023-05-04T11:15:31.657Z,45.27
2023-05-04T11:16:31.642Z,47.05
2023-05-04T11:17:31.728Z,44.85
2023-05-04T11:18:31.632Z,45.25
2023-05-04T11:19:31.633Z,44.73
2023-05-04T11:20:31.605Z,42.63
2023-05-04T11:21:31.574Z,43.53
2023-05-04T11:22:31.571Z,43.55
2023-05-04T11:23:31.576Z,42.55
2023-05-04T11:24:31.541Z,43.45
2023-05-04T11:25:31.553Z,42.76
2023-05-04T11:26:31.514Z,45.13
2023-05-04T11:27:31.518Z,45.23
2023-05-04T11:28:31.493Z,46.20
2023-05-04T11:29:31.481Z,42.41
2023-05-04T11:30:31.509Z,41.11
2023-05-04T11:31:31.499Z,45.09
2023-05-04T11:32:31.529Z,42.19
2023-05-04T11:33:31.449Z,42.21
2023-05-04T11:34:31.434Z,43.41
2023-05-04T11:35:31.624Z,39.62
2023-05-04T11:36:31.430Z,44.15
2023-05-04T11:37:31.399Z,44.15
2023-05-04T11:38:31.399Z,41.85
2023-05-04T11:39:31.380Z,44.15
2023-05-04T11:40:31.363Z,44.55
2023-05-04T11:41:31.375Z,43.45
2023-05-04T11:42:31.342Z,45.03
2023-05-04T11:43:31.335Z,47.53
2023-05-04T11:44:31.327Z,44.11
2023-05-04T11:45:31.358Z,42.71
2023-05-04T11:46:31.338Z,44.21
2023-05-04T11:47:31.380Z,42.21
2023-05-04T11:48:31.274Z,41.14
2023-05-04T11:49:31.267Z,43.53
2023-05-04T11:50:31.244Z,43.63
2023-05-04T11:51:31.235Z,43.81
2023-05-04T11:52:31.256Z,43.51
2023-05-04T11:53:31.229Z,41.03
2023-05-04T11:54:31.196Z,42.15
2023-05-04T11:55:31.184Z,43.25
2023-05-04T11:56:31.175Z,39.28
2023-05-04T11:57:31.184Z,40.17
2023-05-04T11:58:31.208Z,43.45
2023-05-04T11:59:31.152Z,41.33
2023-05-04T12:00:31.155Z,42.71
2023-05-04T12:01:31.154Z,40.52
2023-05-04T12:02:31.292Z,41.99
2023-05-04T12:03:44.029Z,39.48
2023-05-04T12:04:31.116Z,40.58
2023-05-04T12:05:31.112Z,37.38
2023-05-04T12:06:31.074Z,39.50
2023-05-04T12:07:31.108Z,42.69
2023-05-04T12:08:31.060Z,37.60
2023-05-04T12:09:31.048Z,37.02
2023-05-04T12:10:31.051Z,40.64
2023-05-04T12:11:31.024Z,39.43
2023-05-04T12:12:33.318Z,38.64
2023-05-04T12:13:30.997Z,43.23
2023-05-04T12:14:30.985Z,43.11
2023-05-04T12:15:30.976Z,46.08
2023-05-04T12:16:31.022Z,41.58
2023-05-04T12:17:30.988Z,38.98
2023-05-04T12:18:30.936Z,40.58
2023-05-04T12:19:30.933Z,41.30
2023-05-04T12:20:31.130Z,41.47
2023-05-04T12:21:30.906Z,41.08
2023-05-04T12:22:30.926Z,40.58
2023-05-04T12:23:30.887Z,42.27
2023-05-04T12:24:30.886Z,41.25
2023-05-04T12:25:30.870Z,42.25
2023-05-04T12:26:30.856Z,44.62
2023-05-04T12:27:30.848Z,39.74
2023-05-04T12:28:30.867Z,39.96
2023-05-04T12:29:30.827Z,41.85
2023-05-04T12:30:30.849Z,39.76
2023-05-04T12:31:30.849Z,39.46
2023-05-04T12:32:30.816Z,37.98
2023-05-04T12:33:30.805Z,40.30
2023-05-04T12:34:30.761Z,40.70
2023-05-04T12:35:30.764Z,40.28
2023-05-04T12:36:30.752Z,42.55
2023-05-04T12:37:30.741Z,39.76
2023-05-04T12:38:31.123Z,39.68
2023-05-04T12:39:30.723Z,38.09
2023-05-04T12:40:30.725Z,38.89
2023-05-04T12:41:30.701Z,37.49
2023-05-04T12:42:30.680Z,39.38
2023-05-04T12:43:30.698Z,41.75
2023-05-04T12:44:30.692Z,42.03
2023-05-04T12:45:30.656Z,44.40
2023-05-04T12:46:30.754Z,41.31
2023-05-04T12:47:30.672Z,40.80
2023-05-04T12:48:30.622Z,39.72
2023-05-04T12:49:30.612Z,37.04
2023-05-04T12:50:30.667Z,34.55
2023-05-04T12:51:30.602Z,35.46
2023-05-04T12:52:30.569Z,40.72